Time;durP1;ratioP1;P1;durP2;ratioP2;P2;SDS_P1;SDS_P2;PMS_P1;PMS_P2;Temp;Humidity;BMP_temperature;BMP_pressure;BME280_temperature;BME280_humidity;BME280_pressure;Samples;Min_cycle;Max_cycle;Signal;HPM_P1;HPM_P2
2022/01/26 00:07:17;;;;;;;46.05;21.08;;;3.40;98.80;;;;;;5067314;28;20087;-67
2022/01/26 00:09:44;;;;;;;43.88;22.17;;;3.50;98.70;;;;;;5065549;28;20090;-67
2022/01/26 00:12:11;;;;;;;55.05;23.30;;;3.50;98.60;;;;;;5065460;28;20495;-67
2022/01/26 00:14:41;;;;;;;49.63;22.02;;;3.40;98.80;;;;;;5066453;28;20139;-67
2022/01/26 00:17:10;;;;;;;46.47;21.25;;;3.40;98.60;;;;;;5064679;28;20077;-67
2022/01/26 00:19:51;;;;;;;47.38;20.65;;;3.50;98.60;;;;;;5066197;28;20079;-67
2022/01/26 00:22:41;;;;;;;42.20;21.05;;;3.50;98.70;;;;;;5065507;28;20082;-68
2022/01/26 00:26:02;;;;;;;41.50;22.27;;;3.50;98.40;;;;;;5068722;28;20044;-67
2022/01/26 00:38:48;;;;;;;38.88;18.90;;;3.30;98.40;;;;;;5066256;28;20461;-67
2022/01/26 00:41:19;;;;;;;44.88;19.17;;;3.30;98.40;;;;;;5067237;28;20072;-67
2022/01/26 00:43:51;;;;;;;52.28;20.42;;;3.30;98.30;;;;;;5055773;28;20044;-67
2022/01/26 00:46:19;;;;;;;39.83;19.83;;;3.30;98.20;;;;;;5067254;28;20079;-67
2022/01/26 00:48:46;;;;;;;45.22;19.17;;;3.30;98.30;;;;;;5066876;28;20058;-67
2022/01/26 00:51:16;;;;;;;38.25;19.85;;;3.40;98.40;;;;;;5065152;28;20077;-66
2022/01/26 00:53:47;;;;;;;38.15;18.67;;;3.40;98.30;;;;;;5068594;28;20113;-67
2022/01/26 00:56:14;;;;;;;42.20;21.50;;;3.50;98.30;;;;;;5068629;28;20084;-67
2022/01/26 00:58:41;;;;;;;43.30;18.88;;;3.50;98.20;;;;;;5067907;28;20503;-67
2022/01/26 01:01:07;;;;;;;44.67;20.90;;;3.50;98.30;;;;;;5068734;28;20052;-67
2022/01/26 01:03:36;;;;;;;48.38;20.55;;;3.60;98.30;;;;;;5068244;28;20044;-68
2022/01/26 01:06:11;;;;;;;40.10;19.55;;;3.50;98.60;;;;;;5069216;28;20080;-68
2022/01/26 01:08:40;;;;;;;41.00;18.80;;;3.60;98.60;;;;;;5068635;28;20094;-67
2022/01/26 01:11:07;;;;;;;58.15;23.33;;;3.60;98.40;;;;;;5068890;28;20049;-67
2022/01/26 01:13:37;;;;;;;45.47;19.83;;;3.60;98.30;;;;;;5066419;28;20083;-68
2022/01/26 01:16:17;;;;;;;45.53;19.92;;;3.60;98.30;;;;;;5067611;28;20044;-67
2022/01/26 01:18:56;;;;;;;51.10;19.48;;;3.60;98.30;;;;;;5035253;28;20398;-68
2022/01/26 01:24:15;;;;;;;42.78;18.52;;;3.60;98.20;;;;;;5063102;28;20049;-67
2022/01/26 01:32:01;;;;;;;51.03;19.70;;;3.70;98.30;;;;;;5067394;28;20084;-67
2022/01/26 01:34:36;;;;;;;36.20;17.42;;;3.70;98.20;;;;;;5068493;28;20127;-67
2022/01/26 01:37:06;;;;;;;38.10;19.48;;;3.60;98.20;;;;;;5070992;28;20110;-67
2022/01/26 01:39:33;;;;;;;35.22;17.95;;;3.60;98.20;;;;;;5071306;28;20121;-68
2022/01/26 01:42:01;;;;;;;35.97;18.33;;;3.60;98.20;;;;;;5050790;28;20480;-69
2022/01/26 01:44:27;;;;;;;37.78;17.52;;;3.60;98.10;;;;;;5062737;28;20126;-68
2022/01/26 01:46:56;;;;;;;40.80;20.25;;;3.60;98.20;;;;;;5068114;28;20483;-68
2022/01/26 01:49:23;;;;;;;37.28;18.63;;;3.60;98.20;;;;;;5067853;28;20056;-68
2022/01/26 01:51:57;;;;;;;43.30;20.33;;;3.60;98.30;;;;;;5067842;28;20080;-67
2022/01/26 01:54:24;;;;;;;39.45;20.15;;;3.60;98.30;;;;;;5067907;28;20133;-68
2022/01/26 01:56:57;;;;;;;40.75;18.48;;;3.60;98.30;;;;;;5068008;28;20105;-68
2022/01/26 01:59:25;;;;;;;43.25;19.35;;;3.60;98.30;;;;;;5067910;28;20083;-68
2022/01/26 02:01:52;;;;;;;39.25;18.45;;;3.60;98.30;;;;;;5066792;28;20087;-67
2022/01/26 02:04:20;;;;;;;41.78;19.92;;;3.50;98.20;;;;;;5067583;28;20048;-68
2022/01/26 02:06:46;;;;;;;45.30;19.05;;;3.50;98.50;;;;;;5068278;28;20079;-67
2022/01/26 02:09:13;;;;;;;40.85;19.42;;;3.60;98.20;;;;;;5067995;28;20118;-67
2022/01/26 02:11:47;;;;;;;43.88;19.50;;;3.60;98.30;;;;;;5057052;28;20126;-69
2022/01/26 02:14:22;;;;;;;43.35;19.17;;;3.70;98.40;;;;;;5066135;28;20041;-67
2022/01/26 02:16:59;;;;;;;40.28;17.92;;;3.60;98.30;;;;;;5067270;28;20052;-67
2022/01/26 02:50:10;;;;;;;44.35;22.02;;;3.50;98.50;;;;;;5070898;28;20080;-67
2022/01/26 03:01:39;;;;;;;37.03;17.88;;;3.70;98.50;;;;;;5070904;28;20353;-67
2022/01/26 03:03:42;;;;;;;42.83;19.08;;;3.60;98.50;;;;;;5060776;28;20098;-67
2022/01/26 03:06:14;;;;;;;39.55;19.42;;;3.90;98.60;;;;;;5069452;28;20041;-67
2022/01/26 03:08:49;;;;;;;43.25;20.20;;;3.60;98.60;;;;;;5070898;28;20084;-67
2022/01/26 03:11:16;;;;;;;43.28;18.90;;;3.50;98.50;;;;;;5070696;28;20072;-67
2022/01/26 03:13:58;;;;;;;46.03;19.17;;;3.50;98.60;;;;;;5069622;28;20111;-67
2022/01/26 03:16:34;;;;;;;45.42;20.40;;;3.50;98.50;;;;;;5069963;28;20052;-68
2022/01/26 03:19:16;;;;;;;45.10;19.90;;;3.60;98.50;;;;;;5060007;28;20060;-67
2022/01/26 03:30:00;;;;;;;47.88;20.88;;;3.50;98.60;;;;;;5071264;28;20044;-67
2022/01/26 03:32:57;;;;;;;43.60;19.08;;;3.60;98.50;;;;;;5070298;28;20152;-67
2022/01/26 03:35:39;;;;;;;37.72;19.35;;;3.50;98.60;;;;;;5067485;28;20052;-67
2022/01/26 03:38:07;;;;;;;37.78;18.98;;;3.50;98.60;;;;;;5070127;28;20070;-67
2022/01/26 03:40:37;;;;;;;36.65;17.50;;;3.50;98.80;;;;;;5070906;28;20052;-67
2022/01/26 03:43:05;;;;;;;43.97;19.85;;;3.50;98.70;;;;;;5068885;28;20048;-67
2022/01/26 03:45:32;;;;;;;40.75;18.08;;;3.50;98.70;;;;;;5070415;28;20057;-68
2022/01/26 03:47:59;;;;;;;38.92;18.70;;;3.60;98.70;;;;;;5070138;28;20105;-68
2022/01/26 03:50:26;;;;;;;43.33;21.35;;;3.50;98.60;;;;;;5068721;28;20098;-68
2022/01/26 03:52:52;;;;;;;40.42;20.00;;;3.50;98.70;;;;;;5068363;28;20076;-67
2022/01/26 03:55:19;;;;;;;54.92;22.90;;;3.50;98.80;;;;;;5070439;28;20102;-67
2022/01/26 03:57:46;;;;;;;44.63;18.88;;;3.50;98.80;;;;;;5070038;28;20072;-68
2022/01/26 04:00:13;;;;;;;37.95;18.42;;;3.70;98.70;;;;;;5070453;28;20076;-67
2022/01/26 04:02:40;;;;;;;45.97;19.08;;;3.60;98.60;;;;;;5064154;28;20110;-68
2022/01/26 04:05:11;;;;;;;40.58;19.10;;;3.60;98.50;;;;;;5065691;28;20283;-67
2022/01/26 04:07:39;;;;;;;42.70;18.60;;;3.60;98.50;;;;;;5069901;28;20186;-66
2022/01/26 04:10:18;;;;;;;47.88;21.85;;;3.70;98.70;;;;;;5068507;28;20083;-68
2022/01/26 04:12:44;;;;;;;46.65;21.83;;;3.60;98.50;;;;;;5069907;28;20095;-68
2022/01/26 04:15:23;;;;;;;43.47;20.08;;;3.60;98.60;;;;;;5068001;28;20060;-67
2022/01/26 04:17:50;;;;;;;43.97;19.48;;;3.60;98.70;;;;;;5069087;28;20062;-68
2022/01/26 04:20:17;;;;;;;42.35;20.08;;;3.60;98.70;;;;;;5068927;28;20121;-68
2022/01/26 04:23:06;;;;;;;43.42;19.58;;;3.60;98.80;;;;;;5069198;28;20102;-67
2022/01/26 04:25:34;;;;;;;37.65;19.08;;;3.50;98.70;;;;;;5068202;28;20130;-67
2022/01/26 04:28:06;;;;;;;39.55;18.40;;;3.50;98.80;;;;;;5069572;28;20089;-67
2022/01/26 04:30:32;;;;;;;45.35;20.85;;;3.60;98.80;;;;;;5069537;28;20075;-68
2022/01/26 04:33:03;;;;;;;39.83;19.65;;;3.60;98.80;;;;;;5068519;28;20403;-67
2022/01/26 04:35:31;;;;;;;35.40;17.58;;;3.90;98.90;;;;;;5069226;28;20044;-71
2022/01/26 04:38:13;;;;;;;40.03;19.05;;;3.60;99.10;;;;;;5069753;28;20056;-68
2022/01/26 04:41:08;;;;;;;47.38;20.52;;;3.60;98.80;;;;;;5068899;28;20102;-67
2022/01/26 04:43:38;;;;;;;;;;;4.30;99.00;;;;;;5069967;28;20222;-68
2022/01/26 04:46:07;;;;;;;42.53;18.70;;;3.80;99.00;;;;;;5068828;28;20388;-67
2022/01/26 04:48:34;;;;;;;45.13;19.38;;;3.70;98.80;;;;;;5068902;28;20052;-68
2022/01/26 04:51:01;;;;;;;40.22;18.13;;;3.70;98.70;;;;;;5066982;28;20063;-66
2022/01/26 04:53:27;;;;;;;38.60;19.23;;;3.70;98.90;;;;;;5069138;28;20503;-68
2022/01/26 04:55:54;;;;;;;43.90;19.00;;;3.90;98.90;;;;;;5068683;28;20076;-68
2022/01/26 04:58:21;;;;;;;44.72;18.42;;;3.70;99.10;;;;;;5068697;28;20541;-68
2022/01/26 05:00:47;;;;;;;39.35;18.45;;;3.60;99.00;;;;;;5068642;28;20447;-68
2022/01/26 05:03:15;;;;;;;48.53;19.98;;;3.60;99.30;;;;;;5069473;28;20109;-68
2022/01/26 05:05:42;;;;;;;41.10;19.13;;;3.60;99.10;;;;;;5074396;28;20566;-68
2022/01/26 05:08:08;;;;;;;43.08;19.25;;;3.60;99.20;;;;;;5072184;28;20303;-67
2022/01/26 05:10:38;;;;;;;40.42;18.83;;;3.60;99.10;;;;;;5068693;28;20507;-67
2022/01/26 05:13:04;;;;;;;42.53;20.02;;;3.60;99.10;;;;;;5068406;28;20091;-69
2022/01/26 05:15:31;;;;;;;40.47;18.40;;;3.60;99.20;;;;;;5067077;28;20056;-67
2022/01/26 05:17:58;;;;;;;42.92;19.52;;;3.60;99.10;;;;;;5067897;28;20044;-68
2022/01/26 05:20:25;;;;;;;44.00;18.30;;;3.60;99.20;;;;;;5068108;28;20195;-68
2022/01/26 05:22:51;;;;;;;47.63;19.55;;;3.70;99.20;;;;;;5070363;28;20479;-68
2022/01/26 05:25:20;;;;;;;40.58;19.05;;;3.60;99.20;;;;;;5070025;28;20495;-69
2022/01/26 05:27:47;;;;;;;39.50;18.50;;;3.70;99.20;;;;;;5064397;28;20094;-68
2022/01/26 05:30:14;;;;;;;37.55;18.58;;;3.60;99.10;;;;;;5069377;28;20048;-67
2022/01/26 05:32:41;;;;;;;42.00;19.00;;;3.60;99.20;;;;;;5070163;28;20062;-68
2022/01/26 05:35:08;;;;;;;46.75;20.33;;;3.70;99.30;;;;;;5075945;28;20051;-68
2022/01/26 05:37:35;;;;;;;40.25;17.92;;;3.60;99.30;;;;;;5073070;28;20323;-68
2022/01/26 05:40:03;;;;;;;45.65;18.23;;;3.70;99.30;;;;;;5069857;28;20087;-68
2022/01/26 05:42:30;;;;;;;44.70;17.77;;;3.80;99.20;;;;;;5068068;28;20526;-68
2022/01/26 05:45:02;;;;;;;41.10;18.17;;;3.80;99.20;;;;;;5067268;28;20468;-68
2022/01/26 05:47:32;;;;;;;36.17;17.33;;;3.80;99.10;;;;;;5068066;28;20049;-68
2022/01/26 05:49:59;;;;;;;40.42;18.85;;;3.80;99.10;;;;;;5068331;28;20064;-68
2022/01/26 05:52:26;;;;;;;37.20;18.35;;;3.80;99.10;;;;;;5066862;28;20054;-68
2022/01/26 05:54:53;;;;;;;38.80;17.63;;;3.80;99.10;;;;;;5068265;28;20390;-68
2022/01/26 05:57:20;;;;;;;37.35;17.73;;;3.90;99.10;;;;;;5068086;28;20044;-69
2022/01/26 05:59:46;;;;;;;42.30;18.50;;;3.90;99.10;;;;;;5068403;28;20045;-68
2022/01/26 06:02:13;;;;;;;44.30;18.60;;;3.90;99.20;;;;;;5068029;28;20119;-70
2022/01/26 06:04:40;;;;;;;41.53;17.08;;;3.80;99.20;;;;;;5068409;28;20124;-68
2022/01/26 06:07:07;;;;;;;42.35;18.30;;;3.90;99.30;;;;;;5072166;28;20045;-70
2022/01/26 06:09:33;;;;;;;41.72;17.88;;;3.90;99.20;;;;;;5073721;28;20118;-73
2022/01/26 06:12:00;;;;;;;36.10;17.20;;;3.90;99.20;;;;;;5074577;28;20106;-67
2022/01/26 06:14:27;;;;;;;36.95;18.40;;;3.90;99.20;;;;;;5075516;28;20071;-69
2022/01/26 06:16:54;;;;;;;38.72;16.17;;;3.90;99.40;;;;;;5074294;28;20045;-68
2022/01/26 06:19:21;;;;;;;40.53;19.17;;;4.00;99.20;;;;;;5073017;28;20454;-68
2022/01/26 06:21:47;;;;;;;39.05;18.58;;;4.10;99.10;;;;;;5074457;28;20645;-68
2022/01/26 06:24:14;;;;;;;47.00;17.80;;;4.10;99.20;;;;;;5074906;28;20550;-68
2022/01/26 06:26:42;;;;;;;40.90;17.50;;;4.00;99.20;;;;;;5072803;28;20181;-69
2022/01/26 06:29:08;;;;;;;38.83;16.27;;;4.10;99.10;;;;;;5071340;28;20045;-69
2022/01/26 06:31:39;;;;;;;44.15;19.30;;;4.10;99.10;;;;;;5073013;28;20070;-68
2022/01/26 06:34:09;;;;;;;39.75;17.95;;;4.10;99.10;;;;;;5073023;28;20053;-68
2022/01/26 06:36:37;;;;;;;41.97;17.88;;;4.10;99.50;;;;;;5065543;28;20041;-71
2022/01/26 06:39:05;;;;;;;38.85;17.20;;;4.20;99.20;;;;;;5064256;28;20316;-69
2022/01/26 06:41:31;;;;;;;35.53;15.75;;;4.10;99.10;;;;;;5056235;28;20100;-68
2022/01/26 06:44:08;;;;;;;39.58;19.02;;;4.10;99.10;;;;;;5063212;28;20049;-68
2022/01/26 06:46:57;;;;;;;36.78;17.00;;;4.10;99.10;;;;;;5061671;28;20053;-68
2022/01/26 06:51:51;;;;;;;38.97;16.92;;;4.20;99.10;;;;;;5059298;28;20064;-68
2022/01/26 06:54:18;;;;;;;35.38;17.00;;;4.20;99.10;;;;;;5064335;28;20490;-69
2022/01/26 06:56:45;;;;;;;40.85;19.17;;;4.20;99.10;;;;;;5073814;28;20404;-69
2022/01/26 06:59:18;;;;;;;36.60;17.27;;;4.20;99.00;;;;;;5056190;28;20131;-68
2022/01/26 07:01:45;;;;;;;41.22;18.60;;;4.30;99.20;;;;;;5073254;28;20106;-68
2022/01/26 07:04:12;;;;;;;39.05;15.95;;;4.40;99.10;;;;;;5085989;28;20101;-69
2022/01/26 07:06:38;;;;;;;38.65;17.58;;;4.30;99.00;;;;;;5072490;28;20105;-68
2022/01/26 07:09:05;;;;;;;37.50;16.85;;;4.30;98.90;;;;;;5072352;28;20080;-68
2022/01/26 07:11:32;;;;;;;40.58;17.13;;;4.30;99.00;;;;;;5068910;28;20053;-67
2022/01/26 07:14:01;;;;;;;36.15;15.77;;;4.30;98.90;;;;;;5052755;28;20049;-66
2022/01/26 07:21:58;;;;;;;50.55;16.73;;;4.40;98.90;;;;;;5072691;28;20474;-68
2022/01/26 07:24:25;;;;;;;38.10;16.98;;;4.40;98.90;;;;;;5068546;28;20057;-67
2022/01/26 07:26:54;;;;;;;33.13;17.20;;;4.40;98.90;;;;;;5058495;28;20145;-69
2022/01/26 07:29:24;;;;;;;34.33;16.83;;;4.50;98.80;;;;;;5066399;28;20126;-68
2022/01/26 07:31:51;;;;;;;34.22;15.88;;;4.50;98.80;;;;;;5070999;28;20051;-67
2022/01/26 07:34:21;;;;;;;34.97;16.90;;;4.50;98.80;;;;;;5071963;28;20052;-69
2022/01/26 07:36:50;;;;;;;34.72;14.30;;;4.60;98.70;;;;;;5071656;28;20080;-68
2022/01/26 07:39:28;;;;;;;42.58;16.00;;;4.60;98.80;;;;;;5070931;28;20052;-66
2022/01/26 07:41:56;;;;;;;33.80;15.05;;;4.60;98.60;;;;;;5068844;28;20514;-67
2022/01/26 07:44:23;;;;;;;31.38;15.07;;;4.60;98.40;;;;;;5068213;28;20523;-68
2022/01/26 07:46:50;;;;;;;34.80;14.68;;;4.60;98.40;;;;;;5065386;28;20070;-68
2022/01/26 07:49:17;;;;;;;32.85;15.60;;;4.60;98.50;;;;;;5060608;28;20064;-68
2022/01/26 07:51:44;;;;;;;33.72;15.07;;;4.70;98.50;;;;;;5060063;28;20094;-67
2022/01/26 07:54:10;;;;;;;28.50;14.90;;;4.70;98.40;;;;;;5061319;28;20432;-67
2022/01/26 07:56:37;;;;;;;29.35;15.20;;;4.80;98.50;;;;;;5062039;28;20466;-67
2022/01/26 07:59:04;;;;;;;32.25;15.20;;;4.70;98.40;;;;;;5061475;28;20407;-67
2022/01/26 08:01:31;;;;;;;35.67;16.05;;;4.70;98.40;;;;;;5064247;28;20052;-67
2022/01/26 08:03:58;;;;;;;30.85;14.38;;;4.80;98.50;;;;;;5061634;28;20415;-67
2022/01/26 08:06:25;;;;;;;36.88;14.98;;;4.80;98.50;;;;;;5062467;28;20131;-67
2022/01/26 08:08:52;;;;;;;34.90;14.85;;;5.00;98.50;;;;;;5060265;28;20041;-68
2022/01/26 08:11:19;;;;;;;32.97;15.82;;;4.80;98.40;;;;;;5060963;28;20044;-67
2022/01/26 08:13:46;;;;;;;35.15;15.82;;;4.80;98.40;;;;;;5062928;28;20048;-68
2022/01/26 08:16:12;;;;;;;36.22;16.05;;;4.90;98.40;;;;;;5069572;28;20087;-68
2022/01/26 08:18:40;;;;;;;28.73;13.43;;;4.90;98.20;;;;;;5069647;28;20049;-69
2022/01/26 08:21:07;;;;;;;28.08;13.45;;;4.90;98.30;;;;;;5069949;28;20056;-67
2022/01/26 08:23:35;;;;;;;34.58;13.52;;;4.90;98.60;;;;;;5068241;28;20048;-67
2022/01/26 08:26:02;;;;;;;26.05;12.38;;;5.00;98.30;;;;;;5068157;28;20454;-68
2022/01/26 08:28:36;;;;;;;32.50;13.65;;;5.00;97.70;;;;;;5068840;28;20114;-68
2022/01/26 08:31:02;;;;;;;31.10;13.35;;;5.00;97.80;;;;;;5053632;28;20070;-67
2022/01/26 08:33:29;;;;;;;26.08;12.57;;;5.00;98.20;;;;;;5069803;28;20041;-68
2022/01/26 08:35:56;;;;;;;32.35;13.73;;;5.10;97.90;;;;;;5070386;28;20049;-67
2022/01/26 08:38:26;;;;;;;32.67;14.40;;;5.10;97.90;;;;;;5068689;28;20106;-67
2022/01/26 08:40:53;;;;;;;27.35;12.80;;;5.10;97.80;;;;;;5070425;28;20423;-67
2022/01/26 08:43:20;;;;;;;29.38;14.90;;;5.10;97.80;;;;;;5068397;28;20052;-68
2022/01/26 08:45:46;;;;;;;32.03;13.60;;;5.10;97.80;;;;;;5069562;28;20052;-68
2022/01/26 08:48:13;;;;;;;28.45;14.25;;;5.20;98.00;;;;;;5069159;28;20101;-68
2022/01/26 08:50:40;;;;;;;32.78;14.48;;;5.20;97.70;;;;;;5067463;28;20099;-67
2022/01/26 08:53:07;;;;;;;26.95;14.13;;;5.20;97.70;;;;;;5068827;28;20522;-66
2022/01/26 08:55:36;;;;;;;31.63;13.98;;;5.20;97.60;;;;;;5068515;28;20106;-67
2022/01/26 08:58:04;;;;;;;29.38;13.55;;;5.20;97.60;;;;;;5067621;28;20049;-67
2022/01/26 09:00:32;;;;;;;24.88;13.75;;;5.30;97.80;;;;;;5066782;28;20056;-66
2022/01/26 09:02:59;;;;;;;27.45;13.35;;;5.30;97.60;;;;;;5066748;28;20044;-68
2022/01/26 09:05:26;;;;;;;28.25;13.35;;;5.40;97.60;;;;;;5057237;28;20052;-68
2022/01/26 09:07:57;;;;;;;30.55;13.15;;;5.40;97.70;;;;;;5067718;28;20476;-68
2022/01/26 09:10:26;;;;;;;26.38;13.35;;;5.40;97.60;;;;;;5049725;28;20079;-67
2022/01/26 09:12:53;;;;;;;30.65;13.88;;;5.50;97.60;;;;;;5067794;28;20052;-68
2022/01/26 09:15:27;;;;;;;31.23;14.38;;;5.50;97.50;;;;;;5064341;28;20067;-67
2022/01/26 09:17:57;;;;;;;28.00;12.57;;;5.50;97.40;;;;;;5067699;28;20056;-67
2022/01/26 09:20:24;;;;;;;24.17;13.95;;;5.60;97.40;;;;;;5068830;28;20052;-66
2022/01/26 09:22:51;;;;;;;25.20;12.98;;;5.60;97.20;;;;;;5070178;28;20072;-66
2022/01/26 09:25:18;;;;;;;33.00;12.65;;;5.60;97.00;;;;;;5072325;28;20411;-66
2022/01/26 09:27:45;;;;;;;33.22;14.82;;;5.70;97.10;;;;;;5073282;28;20113;-67
2022/01/26 09:30:12;;;;;;;27.70;12.82;;;5.70;97.20;;;;;;5069190;28;20384;-67
2022/01/26 09:32:39;;;;;;;27.75;12.02;;;5.70;97.00;;;;;;5049930;28;20431;-67
2022/01/26 09:35:07;;;;;;;31.92;14.45;;;5.70;96.90;;;;;;5064801;28;20045;-66
2022/01/26 09:37:34;;;;;;;28.92;12.75;;;5.80;97.00;;;;;;5068643;28;20057;-67
2022/01/26 09:40:01;;;;;;;40.75;13.52;;;5.80;96.80;;;;;;5070746;28;20049;-66
2022/01/26 09:42:27;;;;;;;36.00;12.93;;;5.90;97.00;;;;;;5071094;28;20094;-67
2022/01/26 09:44:54;;;;;;;31.90;12.32;;;5.90;96.80;;;;;;5069383;28;20044;-67
2022/01/26 09:47:22;;;;;;;28.38;13.75;;;5.90;96.90;;;;;;5068308;28;20045;-67
2022/01/26 09:49:50;;;;;;;30.90;14.23;;;6.00;96.40;;;;;;5068916;28;20438;-68
2022/01/26 09:52:36;;;;;;;42.83;12.23;;;6.00;96.80;;;;;;5069429;28;20052;-66
2022/01/26 09:55:05;;;;;;;30.48;13.68;;;6.00;96.80;;;;;;5068767;28;20048;-67
2022/01/26 09:57:32;;;;;;;28.75;13.00;;;6.00;96.40;;;;;;5067923;28;20044;-67
2022/01/26 09:59:59;;;;;;;30.15;13.48;;;6.00;96.50;;;;;;5069198;28;20040;-67
2022/01/26 10:02:28;;;;;;;27.75;12.35;;;6.10;96.80;;;;;;5069284;28;20049;-67
2022/01/26 10:04:59;;;;;;;31.05;13.35;;;6.00;96.40;;;;;;5067649;28;20407;-66
2022/01/26 10:07:44;;;;;;;46.53;13.57;;;6.00;96.60;;;;;;5069095;28;20045;-66
2022/01/26 10:18:45;;;;;;;51.08;13.73;;;6.10;96.50;;;;;;5068962;28;20055;-67
2022/01/26 10:21:11;;;;;;;31.38;15.38;;;6.20;96.60;;;;;;5034802;28;20063;-67
2022/01/26 10:23:42;;;;;;;41.40;15.27;;;6.30;96.20;;;;;;5069056;28;20102;-67
2022/01/26 10:26:13;;;;;;;35.22;14.05;;;6.20;96.60;;;;;;5068799;28;20045;-67
2022/01/26 10:28:53;;;;;;;35.55;14.57;;;6.30;96.10;;;;;;5068788;28;20049;-67
2022/01/26 10:31:37;;;;;;;33.47;15.63;;;6.30;96.30;;;;;;5069054;28;20045;-67
2022/01/26 10:34:16;;;;;;;24.77;13.30;;;6.30;96.00;;;;;;5068931;28;20408;-67
2022/01/26 10:36:50;;;;;;;39.20;14.05;;;6.40;95.70;;;;;;5068635;28;20048;-67
2022/01/26 10:39:22;;;;;;;46.47;16.38;;;6.40;96.10;;;;;;5067959;28;20098;-67
2022/01/26 10:41:51;;;;;;;48.22;17.20;;;6.40;96.40;;;;;;5067791;28;20045;-68
2022/01/26 10:44:48;;;;;;;31.98;14.35;;;6.50;96.60;;;;;;5069302;28;20381;-66
2022/01/26 10:47:31;;;;;;;28.00;12.70;;;6.50;95.80;;;;;;5068958;28;20048;-67
2022/01/26 10:52:36;;;;;;;43.83;15.20;;;6.60;95.60;;;;;;5068841;28;20114;-66
2022/01/26 10:55:07;;;;;;;43.17;13.55;;;6.60;95.70;;;;;;5069822;28;20045;-67
2022/01/26 10:57:35;;;;;;;37.97;13.30;;;6.70;95.90;;;;;;5072089;28;20064;-66
2022/01/26 11:00:04;;;;;;;38.97;13.90;;;6.70;95.10;;;;;;5072345;28;20446;-67
2022/01/26 11:02:33;;;;;;;27.25;10.95;;;6.70;95.30;;;;;;5072141;28;20055;-67
2022/01/26 11:05:01;;;;;;;28.73;12.93;;;6.70;94.30;;;;;;5072096;28;20048;-67
2022/01/26 11:07:36;;;;;;;27.15;10.68;;;6.70;94.80;;;;;;5072061;28;20045;-67
2022/01/26 11:10:05;;;;;;;21.65;10.35;;;6.70;94.30;;;;;;5070970;28;20045;-67
2022/01/26 11:12:33;;;;;;;29.73;11.18;;;6.70;94.50;;;;;;5070877;28;20086;-67
2022/01/26 11:15:07;;;;;;;40.03;12.57;;;6.60;95.00;;;;;;5072191;28;20454;-67
2022/01/26 11:17:36;;;;;;;27.08;10.20;;;6.70;94.20;;;;;;5071988;28;20044;-68
2022/01/26 11:20:33;;;;;;;27.67;12.23;;;6.70;94.50;;;;;;5072182;28;20060;-67
2022/01/26 11:23:02;;;;;;;30.00;11.40;;;6.70;94.10;;;;;;5070726;28;20114;-68
2022/01/26 11:25:42;;;;;;;27.40;11.15;;;6.70;95.20;;;;;;5070759;28;20048;-67
2022/01/26 11:28:23;;;;;;;38.92;13.45;;;6.70;94.60;;;;;;5053948;28;20087;-66
2022/01/26 11:30:51;;;;;;;27.23;11.80;;;6.90;94.60;;;;;;5071865;28;20049;-68
2022/01/26 11:33:20;;;;;;;34.10;11.77;;;6.90;94.80;;;;;;5070390;28;20137;-67
2022/01/26 11:35:49;;;;;;;23.38;10.75;;;6.80;94.30;;;;;;5070629;28;20052;-68
2022/01/26 11:39:02;;;;;;;27.02;12.20;;;6.80;94.00;;;;;;5070212;28;20330;-68
2022/01/26 11:47:29;;;;;;;31.77;12.02;;;6.90;94.70;;;;;;5052161;28;20049;-68
2022/01/26 11:50:19;;;;;;;42.67;13.32;;;6.90;94.40;;;;;;5067601;28;20052;-68
2022/01/26 11:53:07;;;;;;;31.50;10.80;;;6.90;94.60;;;;;;5072806;28;20119;-68
2022/01/26 11:55:46;;;;;;;37.85;10.75;;;7.00;94.50;;;;;;5074597;28;20082;-68
2022/01/26 11:58:19;;;;;;;25.77;10.85;;;7.10;95.00;;;;;;5076184;28;20052;-68
2022/01/26 12:01:08;;;;;;;31.35;13.07;;;7.10;94.70;;;;;;5072119;28;20052;-66
2022/01/26 12:03:42;;;;;;;40.17;13.00;;;7.10;94.50;;;;;;5069798;28;20074;-67
2022/01/26 12:06:18;;;;;;;35.33;11.95;;;7.20;94.40;;;;;;5069997;28;20045;-67
2022/01/26 12:08:45;;;;;;;32.38;12.68;;;7.10;94.00;;;;;;5070713;28;20040;-67
2022/01/26 12:11:14;;;;;;;42.53;11.30;;;7.20;94.50;;;;;;5046357;28;20091;-67
2022/01/26 12:13:41;;;;;;;19.33;9.70;;;7.20;93.90;;;;;;5051316;28;20080;-67
2022/01/26 12:16:12;;;;;;;26.92;11.95;;;7.30;94.10;;;;;;5070650;28;20048;-67
2022/01/26 12:38:21;;;;;;;26.83;10.67;;;7.60;93.90;;;;;;5070393;28;20052;-67
2022/01/26 12:43:38;;;;;;;35.17;10.15;;;7.60;93.20;;;;;;5070128;28;20076;-67
2022/01/26 12:46:08;;;;;;;21.33;10.68;;;7.70;93.90;;;;;;5069110;28;20044;-67
2022/01/26 12:48:38;;;;;;;35.90;11.63;;;7.60;93.30;;;;;;5070023;28;20063;-67
2022/01/26 12:51:06;;;;;;;25.63;11.55;;;7.70;93.10;;;;;;5068831;28;20396;-67
2022/01/26 12:53:35;;;;;;;24.05;8.77;;;7.70;93.90;;;;;;5052516;28;20048;-67
2022/01/26 12:56:05;;;;;;;20.30;6.53;;;7.70;93.00;;;;;;5069011;28;20385;-67
2022/01/26 12:58:36;;;;;;;21.98;8.38;;;7.80;93.10;;;;;;5068547;28;20049;-66
2022/01/26 13:01:06;;;;;;;25.33;8.23;;;7.70;92.50;;;;;;5070018;28;20087;-67
2022/01/26 13:03:35;;;;;;;20.88;7.60;;;7.70;93.30;;;;;;5071286;28;20491;-67
2022/01/26 13:06:05;;;;;;;28.75;9.18;;;7.80;92.80;;;;;;5070005;28;20040;-66
2022/01/26 13:08:54;;;;;;;29.58;8.15;;;7.70;93.20;;;;;;5060650;28;20041;-67
2022/01/26 13:11:36;;;;;;;19.23;7.82;;;7.70;92.10;;;;;;5071370;28;20049;-67
2022/01/26 13:14:20;;;;;;;28.25;7.78;;;7.80;93.10;;;;;;5069117;28;20036;-67
2022/01/26 13:19:59;;;;;;;22.83;7.88;;;7.90;92.10;;;;;;5068527;28;20087;-67
2022/01/26 13:27:53;;;;;;;20.38;8.55;;;7.70;92.60;;;;;;5067824;28;20511;-66
2022/01/26 13:34:12;;;;;;;18.42;7.53;;;7.80;93.10;;;;;;5045626;28;20049;-67
2022/01/26 13:36:39;;;;;;;23.75;8.65;;;7.80;92.70;;;;;;5055967;28;20053;-67
2022/01/26 14:00:08;;;;;;;25.17;6.43;;;7.70;93.00;;;;;;5069515;28;20082;-68
2022/01/26 14:02:37;;;;;;;17.08;5.72;;;7.70;92.40;;;;;;5069393;28;20453;-67
2022/01/26 14:05:05;;;;;;;17.38;6.80;;;7.60;92.30;;;;;;5069107;28;20053;-67
2022/01/26 14:07:32;;;;;;;29.38;8.85;;;7.60;92.50;;;;;;5069112;28;20110;-66
2022/01/26 14:09:59;;;;;;;17.38;6.18;;;7.60;92.70;;;;;;5068826;28;20101;-66
2022/01/26 14:12:30;;;;;;;18.98;7.47;;;7.60;92.60;;;;;;5069027;28;20484;-66
2022/01/26 14:14:58;;;;;;;12.13;6.53;;;7.60;92.70;;;;;;5068802;28;20052;-66
2022/01/26 14:17:40;;;;;;;19.63;5.90;;;7.70;92.80;;;;;;5068720;28;20086;-66
2022/01/26 14:20:42;;;;;;;21.60;6.55;;;7.70;91.80;;;;;;5067219;28;20056;-67
2022/01/26 14:25:45;;;;;;;17.30;6.32;;;7.70;91.70;;;;;;4712601;27;10000551;-67
2022/01/26 14:28:20;;;;;;;10.60;5.55;;;7.70;92.20;;;;;;5063661;28;20052;-66
2022/01/26 14:33:51;;;;;;;16.60;5.57;;;7.80;91.70;;;;;;5069171;28;20048;-67
2022/01/26 14:55:12;;;;;;;17.27;6.68;;;7.90;92.40;;;;;;5051946;28;20198;-67
2022/01/26 15:08:46;;;;;;;23.23;8.93;;;7.90;92.70;;;;;;5068553;28;20087;-66
2022/01/26 15:12:12;;;;;;;26.48;8.00;;;7.80;92.30;;;;;;5067443;28;20040;-67
2022/01/26 15:32:13;;;;;;;26.35;9.30;;;7.60;93.20;;;;;;5066823;28;20056;-67
2022/01/26 15:52:59;;;;;;;27.50;9.57;;;7.70;93.60;;;;;;5062193;28;20129;-65
2022/01/26 16:06:21;;;;;;;23.48;10.43;;;7.70;93.40;;;;;;5054123;28;20546;-65
2022/01/26 17:11:05;;;;;;;29.08;12.23;;;7.60;93.30;;;;;;5057335;28;20068;-67
2022/01/26 17:25:40;;;;;;;24.88;13.25;;;7.30;93.70;;;;;;5066662;28;20056;-68
2022/01/26 18:17:04;;;;;;;40.13;13.35;;;7.30;93.80;;;;;;5064488;28;20522;-68
2022/01/26 18:49:19;;;;;;;23.48;11.77;;;7.20;93.10;;;;;;5063158;28;20079;-66
2022/01/26 18:51:56;;;;;;;17.60;9.85;;;7.10;92.90;;;;;;5065647;28;20448;-69
2022/01/26 18:54:29;;;;;;;18.27;9.30;;;7.10;92.80;;;;;;5046318;28;20053;-69
2022/01/26 18:56:57;;;;;;;17.65;9.25;;;7.10;92.60;;;;;;5052335;28;20048;-67
2022/01/26 18:59:24;;;;;;;16.88;9.95;;;7.10;92.60;;;;;;5061891;28;20086;-69
2022/01/26 19:01:52;;;;;;;18.42;8.10;;;7.00;92.50;;;;;;5059329;28;20459;-68
2022/01/26 19:04:43;;;;;;;25.90;8.38;;;7.00;92.30;;;;;;5066014;28;20129;-68
2022/01/26 19:07:10;;;;;;;20.90;9.23;;;6.90;92.30;;;;;;5066378;28;20072;-68
2022/01/26 19:09:41;;;;;;;17.10;8.32;;;7.00;92.50;;;;;;5065322;28;20098;-68
2022/01/26 19:12:11;;;;;;;24.45;8.93;;;7.00;92.80;;;;;;5062149;28;20040;-68
2022/01/26 19:14:41;;;;;;;21.20;10.00;;;6.90;92.80;;;;;;5057771;28;20427;-72
2022/01/26 19:17:17;;;;;;;20.92;10.52;;;6.90;92.90;;;;;;5052891;28;20044;-68
2022/01/26 19:25:21;;;;;;;17.40;9.40;;;6.80;93.00;;;;;;5065970;28;20083;-66
2022/01/26 19:28:34;;;;;;;26.98;10.35;;;6.80;93.10;;;;;;5067238;28;20055;-65
2022/01/26 19:44:18;;;;;;;25.60;9.85;;;6.50;93.50;;;;;;5061628;28;20114;-68